createdAt,value
2018-07-10T00:04:02.191Z,57.00
2018-07-10T00:07:24.988Z,56.60
2018-07-10T00:10:09.845Z,56.40
2018-07-10T00:12:40.481Z,56.30
2018-07-10T00:15:11.973Z,56.10
2018-07-10T00:20:15.272Z,55.80
2018-07-10T00:25:24.389Z,56.30
2018-07-10T00:27:59.528Z,56.50
2018-07-10T00:30:29.029Z,56.50
2018-07-10T00:33:03.040Z,56.50
2018-07-10T00:35:32.562Z,56.60
2018-07-10T00:38:12.953Z,56.50
2018-07-10T00:40:48.432Z,56.60
2018-07-10T00:43:17.616Z,56.70
2018-07-10T00:45:54.760Z,56.70
2018-07-10T00:48:24.341Z,56.70
2018-07-10T00:50:54.642Z,56.70
2018-07-10T00:53:30.559Z,56.70
2018-07-10T00:56:00.934Z,56.50
2018-07-10T00:58:31.275Z,56.30
2018-07-10T01:01:00.412Z,56.10
2018-07-10T01:03:30.128Z,56.10
2018-07-10T01:06:00.228Z,56.10
2018-07-10T01:08:31.862Z,56.20
2018-07-10T01:11:04.725Z,56.20
2018-07-10T01:13:36.093Z,56.20
2018-07-10T01:16:10.892Z,56.30
2018-07-10T01:18:46.685Z,56.30
2018-07-10T01:21:22.232Z,56.50
2018-07-10T01:23:59.487Z,56.40
2018-07-10T01:26:34.284Z,57.00
2018-07-10T01:30:08.668Z,56.40
2018-07-10T01:32:45.777Z,56.50
2018-07-10T01:35:17.631Z,56.40
2018-07-10T01:37:52.579Z,56.30
2018-07-10T01:40:23.842Z,56.30
2018-07-10T01:42:54.419Z,56.20
2018-07-10T01:45:24.412Z,56.20
2018-07-10T01:47:53.294Z,56.10
2018-07-10T01:50:28.504Z,55.90
2018-07-10T01:53:03.840Z,55.60
2018-07-10T01:55:40.078Z,55.60
2018-07-10T01:58:10.998Z,55.40
2018-07-10T02:00:44.616Z,55.30
2018-07-10T02:03:18.755Z,55.10
2018-07-10T02:05:49.677Z,54.90
2018-07-10T02:08:19.779Z,54.90
2018-07-10T02:10:51.450Z,54.90
2018-07-10T02:13:21.410Z,55.00
2018-07-10T02:15:52.070Z,55.00
2018-07-10T02:18:22.441Z,55.00
2018-07-10T02:21:01.616Z,54.90
2018-07-10T02:23:37.826Z,55.00
2018-07-10T02:26:17.904Z,55.10
2018-07-10T02:28:47.681Z,55.20
2018-07-10T02:31:18.169Z,55.60
2018-07-10T02:33:49.355Z,55.90
2018-07-10T02:36:19.485Z,56.00
2018-07-10T02:38:57.322Z,56.00
2018-07-10T02:41:27.641Z,56.20
2018-07-10T02:44:01.761Z,56.30
2018-07-10T02:46:37.342Z,56.40
2018-07-10T02:49:16.222Z,56.60
2018-07-10T02:51:54.626Z,56.70
2018-07-10T02:54:27.189Z,56.80
2018-07-10T02:57:09.417Z,57.00
2018-07-10T02:59:49.081Z,57.10
2018-07-10T03:02:27.423Z,57.10
2018-07-10T03:05:01.378Z,57.40
2018-07-10T03:07:32.965Z,57.60
2018-07-10T03:10:04.211Z,57.70
2018-07-10T03:12:36.342Z,57.90
2018-07-10T03:15:09.420Z,57.90
2018-07-10T03:17:38.226Z,58.10
2018-07-10T03:20:09.621Z,58.00
2018-07-10T03:22:43.566Z,58.00
2018-07-10T03:25:18.452Z,58.20
2018-07-10T03:27:47.385Z,58.30
2018-07-10T03:30:21.713Z,58.40
2018-07-10T03:32:57.763Z,58.60
2018-07-10T03:35:28.710Z,58.60
2018-07-10T03:38:02.868Z,58.70
2018-07-10T03:40:32.136Z,58.90
2018-07-10T03:43:02.571Z,58.80
2018-07-10T03:45:36.387Z,59.00
2018-07-10T03:48:12.868Z,59.10
2018-07-10T03:50:41.732Z,59.00
2018-07-10T03:53:16.623Z,59.00
2018-07-10T03:55:47.119Z,59.00
2018-07-10T03:58:18.212Z,59.00
2018-07-10T04:00:47.965Z,59.10
2018-07-10T04:05:47.316Z,58.80
2018-07-10T04:08:21.267Z,57.70
2018-07-10T04:10:52.902Z,56.90
2018-07-10T04:13:25.733Z,57.30
2018-07-10T04:16:01.466Z,57.40
2018-07-10T04:18:42.846Z,57.20
2018-07-10T04:21:21.642Z,57.20
2018-07-10T04:23:57.388Z,57.10
2018-07-10T04:26:28.871Z,56.90
2018-07-10T04:29:07.364Z,56.80
2018-07-10T04:31:59.642Z,56.80
2018-07-10T04:34:33.475Z,56.70
2018-07-10T04:37:20.893Z,57.40
2018-07-10T04:39:55.469Z,57.00
2018-07-10T04:42:31.646Z,57.00
2018-07-10T04:45:12.942Z,56.90
2018-07-10T04:47:51.729Z,56.80
2018-07-10T04:50:29.126Z,57.00
2018-07-10T04:53:05.473Z,57.00
2018-07-10T04:55:45.247Z,56.90
2018-07-10T04:58:25.869Z,56.80
2018-07-10T05:01:02.105Z,56.80
2018-07-10T05:03:33.910Z,56.80
2018-07-10T05:06:05.972Z,56.70
2018-07-10T05:08:36.906Z,56.50
2018-07-10T05:11:18.841Z,56.70
2018-07-10T05:13:54.114Z,56.80
2018-07-10T05:16:23.019Z,57.00
2018-07-10T05:18:59.501Z,57.10
2018-07-10T05:21:30.164Z,57.20
2018-07-10T05:24:00.413Z,57.30
2018-07-10T05:26:32.721Z,57.10
2018-07-10T05:29:03.324Z,56.80
2018-07-10T05:31:36.627Z,56.60
2018-07-10T05:34:12.138Z,56.50
2018-07-10T05:36:42.081Z,56.30
2018-07-10T05:39:17.415Z,56.20
2018-07-10T05:41:48.977Z,56.20
2018-07-10T05:44:23.048Z,56.40
2018-07-10T05:46:53.645Z,56.30
2018-07-10T05:49:31.283Z,56.60
2018-07-10T05:52:01.866Z,56.70
2018-07-10T05:54:32.329Z,56.80
2018-07-10T05:57:05.150Z,57.30
2018-07-10T05:59:36.105Z,57.30
2018-07-10T06:02:18.688Z,57.30
2018-07-10T06:04:49.689Z,57.10
2018-07-10T06:07:20.294Z,57.10
2018-07-10T06:09:49.569Z,57.40
2018-07-10T06:12:21.298Z,57.50
2018-07-10T06:14:51.878Z,57.70
2018-07-10T06:17:25.453Z,57.90
2018-07-10T06:19:56.433Z,57.40
2018-07-10T06:22:31.232Z,57.90
2018-07-10T06:25:06.933Z,57.90
2018-07-10T06:28:45.665Z,57.80
2018-07-10T06:31:23.934Z,57.70
2018-07-10T06:34:10.061Z,57.30
2018-07-10T06:36:48.326Z,57.20
2018-07-10T06:39:19.140Z,57.00
2018-07-10T06:42:24.513Z,56.90
2018-07-10T06:44:54.041Z,56.50
2018-07-10T06:47:33.769Z,56.60
2018-07-10T06:50:07.409Z,56.50
2018-07-10T06:52:41.665Z,57.00
2018-07-10T06:55:18.962Z,57.20
2018-07-10T06:57:53.328Z,57.30
2018-07-10T07:00:28.361Z,55.70
2018-07-10T07:02:58.358Z,55.30
2018-07-10T07:05:29.691Z,55.40
2018-07-10T07:07:59.115Z,55.60
2018-07-10T07:10:32.802Z,55.60
2018-07-10T07:13:03.323Z,55.60
2018-07-10T07:15:32.802Z,56.00
2018-07-10T07:18:03.497Z,55.90
2018-07-10T07:20:33.062Z,55.90
2018-07-10T07:23:04.778Z,55.70
2018-07-10T07:25:34.061Z,55.30
2018-07-10T07:28:03.338Z,54.80
2018-07-10T07:30:37.349Z,54.80
2018-07-10T07:33:13.275Z,54.60
2018-07-10T07:35:42.813Z,54.30
2018-07-10T07:38:11.606Z,53.20
2018-07-10T07:40:40.743Z,52.10
2018-07-10T07:43:09.765Z,52.00
2018-07-10T07:45:40.104Z,51.70
2018-07-10T07:48:09.124Z,51.80
2018-07-10T07:50:42.308Z,51.60
2018-07-10T07:53:11.108Z,52.10
2018-07-10T07:55:45.097Z,51.80
2018-07-10T07:58:14.213Z,51.60
2018-07-10T08:00:43.752Z,51.70
2018-07-10T08:03:12.959Z,51.70
2018-07-10T08:05:42.326Z,51.60
2018-07-10T08:08:11.066Z,51.30
2018-07-10T08:10:39.971Z,52.00
2018-07-10T08:13:08.838Z,52.20
2018-07-10T08:15:38.299Z,52.20
2018-07-10T08:18:07.070Z,52.20
2018-07-10T08:20:35.900Z,52.10
2018-07-10T08:23:05.260Z,52.00
2018-07-10T08:25:34.212Z,51.90
2018-07-10T08:28:04.025Z,51.20
2018-07-10T08:30:32.966Z,51.20
2018-07-10T08:33:01.826Z,50.70
2018-07-10T08:35:30.673Z,50.20
2018-07-10T08:37:59.457Z,50.00
2018-07-10T08:40:28.359Z,49.80
2018-07-10T08:42:57.155Z,49.30
2018-07-10T08:45:26.253Z,49.00
2018-07-10T08:47:56.884Z,49.30
2018-07-10T08:50:25.964Z,49.50
2018-07-10T08:52:54.921Z,49.80
2018-07-10T08:55:25.398Z,49.80
2018-07-10T08:57:54.234Z,49.90
2018-07-10T09:00:23.080Z,49.40
2018-07-10T09:02:51.974Z,49.30
2018-07-10T09:05:20.881Z,49.50
2018-07-10T09:07:49.676Z,49.50
2018-07-10T09:10:18.492Z,49.00
2018-07-10T09:12:47.347Z,48.90
2018-07-10T09:15:16.102Z,49.30
2018-07-10T09:17:44.929Z,48.40
2018-07-10T09:20:21.730Z,48.20
2018-07-10T09:22:50.608Z,48.20
2018-07-10T09:25:19.422Z,48.20
2018-07-10T09:27:48.235Z,48.00
2018-07-10T09:30:17.651Z,47.70
2018-07-10T09:32:46.559Z,47.60
2018-07-10T09:35:17.044Z,47.50
2018-07-10T09:37:46.684Z,47.60
2018-07-10T09:40:21.118Z,47.60
2018-07-10T09:42:58.880Z,47.70
2018-07-10T09:45:32.776Z,47.40
2018-07-10T09:48:02.403Z,47.40
2018-07-10T09:53:05.857Z,47.60
2018-07-10T09:55:35.713Z,47.70
2018-07-10T09:58:04.556Z,47.80
2018-07-10T10:00:39.425Z,47.90
2018-07-10T10:03:09.081Z,48.00
2018-07-10T10:05:39.915Z,48.00
2018-07-10T10:08:09.615Z,48.00
2018-07-10T10:10:38.694Z,47.90
2018-07-10T10:15:40.420Z,48.00
2018-07-10T10:18:10.079Z,48.10
2018-07-10T10:20:40.657Z,48.30
2018-07-10T10:23:10.881Z,48.20
2018-07-10T10:25:50.198Z,48.20
2018-07-10T10:28:22.161Z,47.90
2018-07-10T10:30:51.102Z,47.80
2018-07-10T10:33:19.966Z,47.70
2018-07-10T10:35:49.365Z,47.60
2018-07-10T10:38:18.765Z,47.50
2018-07-10T10:40:49.330Z,47.40
2018-07-10T10:43:19.032Z,47.30
2018-07-10T10:45:48.232Z,47.50
2018-07-10T10:48:18.576Z,47.50
2018-07-10T10:50:51.241Z,47.70
2018-07-10T10:53:20.959Z,47.60
2018-07-10T10:55:51.079Z,47.70
2018-07-10T10:58:21.688Z,48.00
2018-07-10T11:00:50.909Z,48.10
2018-07-10T11:03:19.704Z,48.10
2018-07-10T11:05:48.600Z,48.40
2018-07-10T11:08:18.687Z,48.80
2018-07-10T11:10:47.832Z,49.30
2018-07-10T11:13:18.048Z,49.50
2018-07-10T11:15:49.391Z,49.70
2018-07-10T11:18:37.852Z,49.90
2018-07-10T11:21:11.777Z,51.60
2018-07-10T11:26:17.871Z,54.50
2018-07-10T11:28:46.801Z,57.00
2018-07-10T11:31:15.614Z,59.20
2018-07-10T11:33:44.414Z,60.60
2018-07-10T11:36:13.221Z,61.50
2018-07-10T11:38:42.160Z,61.40
2018-07-10T11:41:11.866Z,62.70
2018-07-10T11:43:40.698Z,66.50
2018-07-10T11:46:09.568Z,68.60
2018-07-10T11:48:38.409Z,71.00
2018-07-10T11:51:07.544Z,69.80
2018-07-10T11:53:36.764Z,70.10
2018-07-10T11:56:05.599Z,70.70
2018-07-10T11:58:34.420Z,72.20
2018-07-10T12:01:03.709Z,73.40
2018-07-10T12:03:41.571Z,74.00
2018-07-10T12:08:40.072Z,79.90
2018-07-10T12:11:17.406Z,81.70
2018-07-10T12:13:46.475Z,84.00
2018-07-10T12:16:22.028Z,84.30
2018-07-10T12:18:51.493Z,83.00
2018-07-10T12:21:21.186Z,83.40
2018-07-10T12:23:50.194Z,81.90
2018-07-10T12:26:19.571Z,83.30
2018-07-10T12:28:49.412Z,83.30
2018-07-10T12:31:18.410Z,83.50
2018-07-10T12:33:47.451Z,81.70
2018-07-10T12:36:16.381Z,82.30
2018-07-10T12:38:45.488Z,82.20
2018-07-10T12:41:14.763Z,82.60
2018-07-10T12:43:43.609Z,84.20
2018-07-10T12:46:14.506Z,83.80
2018-07-10T12:48:45.552Z,82.40
2018-07-10T12:51:15.108Z,82.30
2018-07-10T12:53:44.821Z,82.30
2018-07-10T12:56:13.869Z,80.80
2018-07-10T12:58:44.215Z,82.60
2018-07-10T13:01:13.883Z,82.60
2018-07-10T13:03:43.621Z,83.50
2018-07-10T13:06:12.900Z,84.50
2018-07-10T13:08:42.045Z,85.00
2018-07-10T13:11:11.496Z,82.60
2018-07-10T13:13:41.484Z,82.60
2018-07-10T13:16:10.517Z,82.60
2018-07-10T13:18:40.794Z,83.40
2018-07-10T13:21:10.273Z,84.10
2018-07-10T13:23:39.185Z,83.90
2018-07-10T13:26:08.438Z,84.00
2018-07-10T13:28:39.407Z,85.30
2018-07-10T13:31:08.717Z,87.50
2018-07-10T13:33:38.602Z,87.70
2018-07-10T13:36:07.841Z,87.70
2018-07-10T13:38:38.368Z,88.20
2018-07-10T13:41:07.319Z,88.30
2018-07-10T13:43:36.406Z,87.90
2018-07-10T13:46:05.373Z,86.90
2018-07-10T13:48:34.176Z,87.30
2018-07-10T13:51:04.584Z,86.90
2018-07-10T13:53:38.433Z,86.20
2018-07-10T13:56:07.607Z,85.00
2018-07-10T13:58:37.948Z,84.80
2018-07-10T14:01:09.632Z,84.00
2018-07-10T14:03:38.702Z,83.80
2018-07-10T14:06:07.827Z,84.60
2018-07-10T14:11:05.713Z,84.40
2018-07-10T14:16:03.203Z,83.40
2018-07-10T14:18:32.021Z,82.80
2018-07-10T14:21:02.970Z,81.70
2018-07-10T14:23:31.815Z,81.90
2018-07-10T14:26:00.640Z,82.10
2018-07-10T14:28:29.651Z,81.30
2018-07-10T14:30:59.468Z,80.20
2018-07-10T14:33:29.505Z,80.80
2018-07-10T14:35:58.402Z,80.20
2018-07-10T14:38:29.065Z,79.50
2018-07-10T14:41:01.876Z,80.30
2018-07-10T14:43:37.566Z,80.90
2018-07-10T14:46:11.062Z,79.60
2018-07-10T14:48:45.098Z,79.10
2018-07-10T14:51:15.775Z,79.30
2018-07-10T14:53:44.686Z,79.80
2018-07-10T14:56:13.618Z,79.90
2018-07-10T14:58:42.795Z,80.10
2018-07-10T15:01:11.653Z,79.20
2018-07-10T15:03:41.113Z,78.20
2018-07-10T15:06:10.914Z,78.80
2018-07-10T15:08:39.746Z,78.10
2018-07-10T15:11:08.536Z,78.10
2018-07-10T15:13:48.547Z,76.80
2018-07-10T15:16:17.282Z,76.90
2018-07-10T15:18:49.961Z,76.50
2018-07-10T15:21:19.522Z,76.80
2018-07-10T15:23:49.272Z,77.30
2018-07-10T15:26:18.937Z,78.10
2018-07-10T15:28:47.967Z,79.20
2018-07-10T15:31:16.809Z,79.90
2018-07-10T15:33:49.618Z,80.70
2018-07-10T15:36:18.430Z,80.00
2018-07-10T15:38:48.528Z,80.70
2018-07-10T15:43:46.755Z,81.80
2018-07-10T15:46:15.514Z,82.40
2018-07-10T15:51:12.881Z,83.00
2018-07-10T15:56:10.096Z,84.20
2018-07-10T15:58:38.998Z,85.00
2018-07-10T16:01:08.246Z,84.20
2018-07-10T16:03:37.202Z,84.30
2018-07-10T16:06:06.352Z,84.20
2018-07-10T16:08:37.637Z,83.50
2018-07-10T16:11:06.780Z,83.60
2018-07-10T16:13:42.065Z,83.80
2018-07-10T16:16:15.913Z,83.70
2018-07-10T16:21:15.649Z,82.20
2018-07-10T16:23:44.464Z,82.70
2018-07-10T16:26:20.599Z,82.50
2018-07-10T16:28:51.417Z,81.90
2018-07-10T16:31:22.244Z,81.20
2018-07-10T16:33:51.113Z,80.50
2018-07-10T16:36:19.997Z,80.20
2018-07-10T16:38:48.836Z,80.00
2018-07-10T16:41:23.212Z,79.60
2018-07-10T16:43:53.157Z,79.10
2018-07-10T16:46:28.082Z,78.60
2018-07-10T16:49:04.530Z,78.30
2018-07-10T16:51:44.740Z,77.60
2018-07-10T16:54:14.045Z,76.80
2018-07-10T16:56:42.801Z,76.80
2018-07-10T16:59:11.753Z,76.30
2018-07-10T17:01:41.377Z,76.00
2018-07-10T17:04:10.846Z,76.30
2018-07-10T17:09:08.207Z,77.10
2018-07-10T17:11:37.139Z,78.20
2018-07-10T17:14:06.099Z,77.40
2018-07-10T17:21:32.180Z,78.10
2018-07-10T17:24:03.721Z,78.30
2018-07-10T17:26:34.239Z,77.80
2018-07-10T17:29:08.026Z,77.60
2018-07-10T17:31:37.117Z,79.30
2018-07-10T17:34:06.265Z,80.40
2018-07-10T17:36:35.233Z,80.70
2018-07-10T17:39:05.680Z,81.10
2018-07-10T17:41:36.455Z,82.60
2018-07-10T17:44:07.270Z,83.20
2018-07-10T17:46:36.262Z,83.90
2018-07-10T17:49:05.330Z,84.50
2018-07-10T17:54:03.329Z,84.60
2018-07-10T17:56:32.232Z,85.10
2018-07-10T17:59:01.895Z,85.30
2018-07-10T18:01:30.854Z,85.70
2018-07-10T18:03:59.660Z,85.60
2018-07-10T18:06:28.482Z,85.20
2018-07-10T18:08:57.241Z,85.10
2018-07-10T18:11:26.587Z,84.80
2018-07-10T18:16:28.659Z,85.00
2018-07-10T18:18:57.530Z,85.70
2018-07-10T18:21:27.291Z,84.80
2018-07-10T18:23:56.882Z,84.30
2018-07-10T18:26:25.753Z,84.40
2018-07-10T18:28:56.850Z,84.70
2018-07-10T18:31:28.311Z,84.50
2018-07-10T18:33:57.159Z,84.20
2018-07-10T18:36:26.076Z,84.40
2018-07-10T18:38:57.688Z,84.60
2018-07-10T18:41:26.470Z,85.90
2018-07-10T18:43:55.272Z,86.50
2018-07-10T18:46:24.091Z,87.60
2018-07-10T18:48:53.320Z,88.70
2018-07-10T18:51:22.363Z,89.30
2018-07-10T18:53:51.177Z,89.80
2018-07-10T18:56:20.524Z,90.60
2018-07-10T18:58:58.295Z,90.90
2018-07-10T19:02:00.587Z,91.00
2018-07-10T19:04:38.804Z,91.20
2018-07-10T19:07:07.712Z,91.50
2018-07-10T19:09:37.509Z,91.30
2018-07-10T19:12:09.296Z,91.40
2018-07-10T19:14:38.763Z,91.70
2018-07-10T19:17:14.762Z,91.90
2018-07-10T19:19:51.137Z,92.10
2018-07-10T19:22:23.072Z,91.70
2018-07-10T19:24:51.920Z,91.90
2018-07-10T19:27:26.388Z,91.10
2018-07-10T19:29:56.724Z,91.00
2018-07-10T19:32:25.869Z,91.00
2018-07-10T19:35:01.621Z,90.60
2018-07-10T19:37:32.885Z,90.60
2018-07-10T19:40:01.671Z,90.60
2018-07-10T19:42:32.221Z,90.50
2018-07-10T19:45:02.058Z,90.60
2018-07-10T19:47:31.445Z,90.30
2018-07-10T19:50:09.544Z,90.10
2018-07-10T19:52:38.497Z,89.60
2018-07-10T19:55:07.393Z,90.60
2018-07-10T19:58:16.839Z,91.00
2018-07-10T20:00:51.414Z,91.10
2018-07-10T20:03:47.164Z,91.20
2018-07-10T20:06:25.886Z,91.00
2018-07-10T20:08:58.281Z,90.60
2018-07-10T20:11:33.191Z,90.40
2018-07-10T20:14:02.100Z,90.00
2018-07-10T20:16:51.702Z,90.00
2018-07-10T20:20:24.317Z,89.80
2018-07-10T20:23:24.692Z,90.10
2018-07-10T20:26:28.741Z,90.30
2018-07-10T20:29:10.572Z,90.40
2018-07-10T20:31:47.161Z,90.40
2018-07-10T20:34:39.733Z,90.40
2018-07-10T20:37:16.069Z,90.60
2018-07-10T20:39:44.929Z,90.30
2018-07-10T20:42:13.784Z,90.10
2018-07-10T20:44:50.738Z,90.00
2018-07-10T20:47:20.396Z,89.90
2018-07-10T20:49:56.697Z,89.50
2018-07-10T20:52:31.600Z,89.10
2018-07-10T20:55:04.931Z,89.10
2018-07-10T20:57:41.082Z,88.60
2018-07-10T21:03:18.981Z,87.60
2018-07-10T21:05:50.690Z,87.90
2018-07-10T21:08:31.646Z,88.30
2018-07-10T21:11:05.746Z,88.40
2018-07-10T21:13:54.531Z,88.30
2018-07-10T21:16:36.384Z,88.60
2018-07-10T21:20:30.066Z,88.40
2018-07-10T21:25:10.044Z,88.10
2018-07-10T21:28:45.536Z,88.80
2018-07-10T21:32:26.053Z,88.80
2018-07-10T21:34:55.058Z,89.20
2018-07-10T21:37:35.345Z,89.60
2018-07-10T21:41:23.116Z,90.00
2018-07-10T21:44:30.982Z,89.70
2018-07-10T21:47:04.510Z,90.30
2018-07-10T21:49:48.526Z,90.40
2018-07-10T21:52:18.113Z,90.40
2018-07-10T21:54:47.841Z,90.20
2018-07-10T21:57:18.083Z,90.30
2018-07-10T21:59:54.443Z,90.30
2018-07-10T22:02:23.793Z,90.20
2018-07-10T22:04:54.529Z,90.20
2018-07-10T22:07:26.301Z,89.90
2018-07-10T22:10:00.089Z,89.50
2018-07-10T22:12:29.109Z,89.60
2018-07-10T22:14:59.092Z,89.10
2018-07-10T22:17:29.417Z,88.60
2018-07-10T22:20:02.658Z,88.60
2018-07-10T22:22:32.990Z,88.50
2018-07-10T22:25:06.205Z,88.40
2018-07-10T22:27:37.888Z,88.30
2018-07-10T22:30:11.946Z,88.30
2018-07-10T22:32:46.793Z,88.30
2018-07-10T22:35:16.436Z,88.20
2018-07-10T22:37:45.297Z,88.50
2018-07-10T22:40:14.658Z,88.50
2018-07-10T22:42:43.512Z,88.60
2018-07-10T22:45:13.414Z,88.80
2018-07-10T22:47:43.077Z,89.20
2018-07-10T22:50:15.921Z,89.20
2018-07-10T22:52:51.207Z,89.20
2018-07-10T22:55:21.924Z,89.30
2018-07-10T22:57:52.532Z,89.20
2018-07-10T23:00:33.629Z,89.20
2018-07-10T23:03:12.469Z,89.20
2018-07-10T23:05:41.298Z,88.70
2018-07-10T23:08:10.169Z,88.70
2018-07-10T23:10:39.110Z,88.60
2018-07-10T23:13:07.976Z,88.90
2018-07-10T23:15:36.905Z,88.80
2018-07-10T23:18:06.243Z,88.80
2018-07-10T23:20:35.343Z,89.20
2018-07-10T23:23:04.254Z,89.50
2018-07-10T23:25:33.500Z,89.40
2018-07-10T23:28:04.415Z,89.60
2018-07-10T23:30:38.859Z,89.50
2018-07-10T23:33:10.862Z,89.60
2018-07-10T23:35:41.633Z,89.90
2018-07-10T23:39:16.892Z,89.40
2018-07-10T23:41:53.245Z,89.30
2018-07-10T23:44:25.536Z,89.20
2018-07-10T23:46:58.582Z,89.40
2018-07-10T23:49:30.406Z,89.10
2018-07-10T23:52:10.390Z,89.80
2018-07-10T23:54:39.425Z,89.90
2018-07-10T23:57:08.542Z,90.00
2018-07-10T23:59:38.957Z,90.20
